Fatcat — WDA6645 — position and weather

sailwx.info

Track history (hours):
 
Tides and Currents Weather Stations Pressure Air Temp Water Temp Dewpoint Dewpoint Depression Visibility Wind Speed Wind Dir Waves Ship Positions

Fatcat

Owner: TAURUS MARINE, SAN FRANCISCO, CA. More information available from US FCC via Universal Licensing System and Coast Guard Vessel Documentation Center.

Last reported at 2018-Jun-22 18:15 UTC. Time now 2018-Jun-22 23:00 UTC.
Position N 38°05' W 122°16'.

Length 20 m; draft 3 m.

Type: Ship (hazmat cat A). MMSI: 366834640.

Date/timePositionNaut miles runAvg speedWind from/ knotsBaromVisibWave heightAir tempDewpointWater temp
2018-Jun-22 18:15N 38°05' W 122°16'0 0.2
2018-Jun-22 17:58N 38°05' W 122°16'0 0.0
2018-Jun-22 17:29N 38°05' W 122°16'2 4.7
2018-Jun-22 17:00N 38°04' W 122°14'4 6.6
2018-Jun-22 16:25N 38°02' W 122°09'3 6.6
2018-Jun-22 16:00N 38°03' W 122°06'0 0.4
2018-Jun-22 15:13N 38°03' W 122°06'0 0.0
2018-Jun-22 14:58N 38°03' W 122°06'0 0.0
2018-Jun-22 14:30N 38°03' W 122°06'0 0.0
2018-Jun-22 13:49N 38°03' W 122°06'2 4.4
2018-Jun-22 13:26N 38°02' W 122°08'3 5.6
2018-Jun-22 12:58N 38°03' W 122°11'2 5.4
2018-Jun-22 12:30N 38°04' W 122°14'2 4.4
2018-Jun-22 12:00N 38°05' W 122°16'0 0.0
2018-Jun-22 08:34N 38°05' W 122°16'0 0.8
2018-Jun-22 08:30N 38°05' W 122°15'0 0.2
2018-Jun-22 07:59N 38°05' W 122°15'1 2.4
2018-Jun-22 07:30N 38°04' W 122°15'2 4.8
2018-Jun-22 07:00N 38°03' W 122°17'3 5.3
2018-Jun-22 06:30N 38°02' W 122°21'3 5.5
2018-Jun-22 06:00N 38°01' W 122°24'3 5.1
2018-Jun-22 05:31N 37°59' W 122°26'3 5.2
2018-Jun-22 05:00N 37°56' W 122°26'3 6.1
2018-Jun-22 04:30N 37°53' W 122°25'3 6.3
2018-Jun-22 04:01N 37°50' W 122°24'3 6.1
2018-Jun-22 03:30N 37°47' W 122°23'1 1.5
2018-Jun-22 03:01N 37°46' W 122°23'0 0.0
2018-Jun-22 02:30N 37°46' W 122°23'0 0.1
2018-Jun-22 01:58N 37°46' W 122°23'0 0.0
2018-Jun-22 01:30N 37°46' W 122°23'0 0.0
2018-Jun-22 01:00N 37°46' W 122°23'0 0.1
2018-Jun-22 00:30N 37°47' W 122°23'0 0.2
2018-Jun-22 00:00N 37°47' W 122°23'2 4.8
2018-Jun-21 23:30N 37°49' W 122°24'3 5.4
2018-Jun-21 23:00N 37°51' W 122°25'2 5.0
2018-Jun-21 22:30N 37°54' W 122°25'2 4.9
2018-Jun-21 22:00N 37°56' W 122°26'5 6.1
2018-Jun-21 21:16N 38°01' W 122°24'2 6.2
2018-Jun-21 21:00N 38°02' W 122°22'4 7.1
2018-Jun-21 20:29N 38°03' W 122°18'3 6.3
2018-Jun-21 20:00N 38°05' W 122°15'0 0.0
2018-Jun-21 16:00N 38°05' W 122°15'4 8.6
2018-Jun-21 15:30N 38°03' W 122°20'5 9.3
2018-Jun-21 15:01N 38°00' W 122°24'4 8.6
2018-Jun-21 14:31N 37°56' W 122°26'5 9.4
2018-Jun-21 14:00N 37°51' W 122°25'4 8.3
2018-Jun-21 13:30N 37°47' W 122°23'1 0.0
2018-Jun-19 21:28N 37°46' W 122°23'4 8.4
2018-Jun-19 21:00N 37°50' W 122°24'4 8.5
2018-Jun-19 20:31N 37°54' W 122°25'2 4.7
2018-Jun-19 20:00N 37°57' W 122°26'4 7.5
2018-Jun-19 19:31N 37°53' W 122°24'4 8.1
2018-Jun-19 19:01N 37°49' W 122°23'3 5.4
2018-Jun-19 18:31N 37°46' W 122°23'0 0.0
2018-Jun-18 18:54N 37°46' W 122°23'0 0.2
2018-Jun-18 18:26N 37°47' W 122°23'0 0.1
2018-Jun-18 18:00N 37°47' W 122°23'2 4.8
2018-Jun-18 17:30N 37°47' W 122°20'2 3.2
2018-Jun-18 17:01N 37°47' W 122°18'2 4.4
2018-Jun-18 16:30N 37°47' W 122°21'2 4.7
2018-Jun-18 16:00N 37°49' W 122°23'2 5.0
2018-Jun-18 15:30N 37°51' W 122°24'3 6.4
2018-Jun-18 15:00N 37°54' W 122°24'1 1.7
2018-Jun-18 14:30N 37°55' W 122°25'0 0.0
2018-Jun-18 14:00N 37°55' W 122°25'3 6.8
2018-Jun-18 13:30N 37°52' W 122°24'4 7.8
2018-Jun-18 13:00N 37°48' W 122°23'2 0.1
2018-Jun-18 01:33N 37°46' W 122°23'0 1.2
2018-Jun-18 01:30N 37°46' W 122°23'0 0.0
2018-Jun-17 16:52N 37°46' W 122°23'1 1.7
2018-Jun-17 16:30N 37°46' W 122°22'1 1.8
2018-Jun-17 16:00N 37°46' W 122°21'0 0.0
2018-Jun-17 15:30N 37°46' W 122°21'0 0.0
2018-Jun-17 15:00N 37°46' W 122°21'0 0.0
2018-Jun-17 14:30N 37°46' W 122°21'0 0.0
2018-Jun-17 14:00N 37°46' W 122°21'1 1.9
2018-Jun-17 13:29N 37°46' W 122°22'1 0.0
2018-Jun-16 17:40N 37°46' W 122°23'0 0.6
2018-Jun-16 17:30N 37°46' W 122°23'0 0.0
2018-Jun-16 17:00N 37°46' W 122°23'2 4.2
2018-Jun-16 16:30N 37°49' W 122°23'3 6.5
2018-Jun-16 16:00N 37°52' W 122°24'4 8.4
2018-Jun-16 15:30N 37°56' W 122°25'5 7.9
2018-Jun-16 14:55N 38°00' W 122°24'4 7.9
2018-Jun-16 14:26N 38°02' W 122°20'5 0.3
2018-Jun-15 21:04N 38°06' W 122°16'0 0.3
2018-Jun-15 20:53N 38°06' W 122°16'0 0.1
2018-Jun-15 20:25N 38°05' W 122°16'0 0.0
2018-Jun-14 23:50N 38°05' W 122°15'0 0.1
2018-Jun-14 23:24N 38°05' W 122°16'1 3.3
2018-Jun-14 22:59N 38°04' W 122°15'2 4.3
2018-Jun-14 22:30N 38°03' W 122°12'3 4.3
2018-Jun-14 21:50N 38°02' W 122°09'0 0.0
2018-Jun-14 20:06N 38°02' W 122°09'2 9.8
2018-Jun-14 19:52N 38°03' W 122°12'4 9.8
2018-Jun-14 19:30N 38°04' W 122°16'5 9.6
2018-Jun-14 18:59N 38°02' W 122°22'2 1.7
2018-Jun-14 17:39N 38°03' W 122°19'2 8.8
2018-Jun-14 17:23N 38°04' W 122°16'2 2.3
2018-Jun-14 16:38N 38°05' W 122°15'1 5.8
2018-Jun-14 16:27N 38°04' W 122°14'4 8.5
2018-Jun-14 15:57N 38°02' W 122°09'1 0.4
2018-Jun-14 13:31N 38°02' W 122°08'1 5.7
2018-Jun-14 13:20N 38°02' W 122°09'2 5.7
2018-Jun-14 13:00N 38°03' W 122°11'3 5.4
2018-Jun-14 12:30N 38°04' W 122°15'1 0.1
2018-Jun-14 02:24N 38°05' W 122°15'2 5.4
2018-Jun-14 02:00N 38°04' W 122°17'4 7.3
2018-Jun-14 01:30N 38°02' W 122°21'4 7.5
2018-Jun-14 00:59N 37°60' W 122°25'3 7.1
2018-Jun-14 00:30N 37°56' W 122°26'1 2.1
2018-Jun-14 00:00N 37°55' W 122°25'0 0.1
2018-Jun-13 23:30N 37°55' W 122°25'0 0.0
2018-Jun-13 23:00N 37°55' W 122°25'0 0.0
2018-Jun-13 22:30N 37°55' W 122°25'0 0.0
2018-Jun-13 22:00N 37°55' W 122°25'0 0.0
2018-Jun-13 21:30N 37°55' W 122°25'0 0.0
2018-Jun-13 21:00N 37°55' W 122°25'0 0.0
2018-Jun-13 20:30N 37°55' W 122°25'0 0.0
2018-Jun-13 20:01N 37°55' W 122°25'0 0.0
2018-Jun-13 19:29N 37°55' W 122°25'0 0.0
2018-Jun-13 19:00N 37°55' W 122°25'0 0.0
2018-Jun-13 18:30N 37°55' W 122°25'0 0.0
2018-Jun-13 17:56N 37°55' W 122°25'0 0.0
2018-Jun-13 17:30N 37°55' W 122°25'0 0.0
2018-Jun-13 17:00N 37°55' W 122°25'0 0.0
2018-Jun-13 16:30N 37°55' W 122°25'0 0.0
2018-Jun-13 16:00N 37°55' W 122°25'0 0.0
2018-Jun-13 15:30N 37°55' W 122°25'0 0.0
2018-Jun-13 15:00N 37°55' W 122°25'0 0.0
2018-Jun-13 14:29N 37°55' W 122°25'0 0.3
2018-Jun-13 14:00N 37°55' W 122°25'0 0.3
2018-Jun-13 13:30N 37°55' W 122°25'1 2.0
2018-Jun-13 13:01N 37°54' W 122°25'3 6.8
2018-Jun-13 12:31N 37°51' W 122°24'5 9.2
2018-Jun-13 12:00N 37°46' W 122°23'0 0.0
2018-Jun-13 03:49N 37°46' W 122°23'2 6.1
2018-Jun-13 03:30N 37°48' W 122°23'4 8.9
2018-Jun-13 03:00N 37°53' W 122°25'3 5.1
2018-Jun-13 02:30N 37°55' W 122°25'0 0.2
2018-Jun-13 02:00N 37°55' W 122°25'0 0.0
2018-Jun-13 01:30N 37°55' W 122°25'0 0.0
2018-Jun-13 01:00N 37°55' W 122°25'0 0.0
2018-Jun-13 00:30N 37°55' W 122°25'0 0.0
2018-Jun-13 00:00N 37°55' W 122°25'0 0.0
2018-Jun-12 23:30N 37°55' W 122°25'0 0.0
2018-Jun-12 23:00N 37°55' W 122°25'0 0.0
2018-Jun-12 22:29N 37°55' W 122°25'0 0.0
2018-Jun-12 22:00N 37°55' W 122°25'0 0.0
2018-Jun-12 21:29N 37°55' W 122°25'0 0.0
2018-Jun-12 21:00N 37°55' W 122°25'0 0.0
2018-Jun-12 20:30N 37°55' W 122°25'0 0.0
2018-Jun-12 20:00N 37°55' W 122°25'0 0.0
2018-Jun-12 19:25N 37°55' W 122°25'0 0.0
2018-Jun-12 18:59N 37°55' W 122°25'0 0.0
2018-Jun-12 18:30N 37°55' W 122°25'  
Track history (hours):
 
Tides and Currents Weather Stations Pressure Air Temp Water Temp Dewpoint Dewpoint Depression Visibility Wind Speed Wind Dir Waves Ship Positions

Fatcat

Owner: TAURUS MARINE, SAN FRANCISCO, CA. More information available from US FCC via Universal Licensing System and Coast Guard Vessel Documentation Center.

Last reported at 2018-Jun-22 18:15 UTC. Time now 2018-Jun-22 23:00 UTC.
Position N 38°05' W 122°16'.

Length 20 m; draft 3 m.

Type: Ship (hazmat cat A). MMSI: 366834640.

Date/timePositionNaut miles runAvg speedWind from/ knotsBaromVisibWave heightAir tempDewpointWater temp
2018-Jun-22 18:15N 38°05' W 122°16'0 0.2
2018-Jun-22 17:58N 38°05' W 122°16'0 0.0
2018-Jun-22 17:29N 38°05' W 122°16'2 4.7
2018-Jun-22 17:00N 38°04' W 122°14'4 6.6
2018-Jun-22 16:25N 38°02' W 122°09'3 6.6
2018-Jun-22 16:00N 38°03' W 122°06'0 0.4
2018-Jun-22 15:13N 38°03' W 122°06'0 0.0
2018-Jun-22 14:58N 38°03' W 122°06'0 0.0
2018-Jun-22 14:30N 38°03' W 122°06'0 0.0
2018-Jun-22 13:49N 38°03' W 122°06'2 4.4
2018-Jun-22 13:26N 38°02' W 122°08'3 5.6
2018-Jun-22 12:58N 38°03' W 122°11'2 5.4
2018-Jun-22 12:30N 38°04' W 122°14'2 4.4
2018-Jun-22 12:00N 38°05' W 122°16'0 0.0
2018-Jun-22 08:34N 38°05' W 122°16'0 0.8
2018-Jun-22 08:30N 38°05' W 122°15'0 0.2
2018-Jun-22 07:59N 38°05' W 122°15'1 2.4
2018-Jun-22 07:30N 38°04' W 122°15'2 4.8
2018-Jun-22 07:00N 38°03' W 122°17'3 5.3
2018-Jun-22 06:30N 38°02' W 122°21'3 5.5
2018-Jun-22 06:00N 38°01' W 122°24'3 5.1
2018-Jun-22 05:31N 37°59' W 122°26'3 5.2
2018-Jun-22 05:00N 37°56' W 122°26'3 6.1
2018-Jun-22 04:30N 37°53' W 122°25'3 6.3
2018-Jun-22 04:01N 37°50' W 122°24'3 6.1
2018-Jun-22 03:30N 37°47' W 122°23'1 1.5
2018-Jun-22 03:01N 37°46' W 122°23'0 0.0
2018-Jun-22 02:30N 37°46' W 122°23'0 0.1
2018-Jun-22 01:58N 37°46' W 122°23'0 0.0
2018-Jun-22 01:30N 37°46' W 122°23'0 0.0
2018-Jun-22 01:00N 37°46' W 122°23'0 0.1
2018-Jun-22 00:30N 37°47' W 122°23'0 0.2
2018-Jun-22 00:00N 37°47' W 122°23'2 4.8
2018-Jun-21 23:30N 37°49' W 122°24'3 5.4
2018-Jun-21 23:00N 37°51' W 122°25'2 5.0
2018-Jun-21 22:30N 37°54' W 122°25'2 4.9
2018-Jun-21 22:00N 37°56' W 122°26'5 6.1
2018-Jun-21 21:16N 38°01' W 122°24'2 6.2
2018-Jun-21 21:00N 38°02' W 122°22'4 7.1
2018-Jun-21 20:29N 38°03' W 122°18'3 6.3
2018-Jun-21 20:00N 38°05' W 122°15'0 0.0
2018-Jun-21 16:00N 38°05' W 122°15'4 8.6
2018-Jun-21 15:30N 38°03' W 122°20'5 9.3
2018-Jun-21 15:01N 38°00' W 122°24'4 8.6
2018-Jun-21 14:31N 37°56' W 122°26'5 9.4
2018-Jun-21 14:00N 37°51' W 122°25'4 8.3
2018-Jun-21 13:30N 37°47' W 122°23'1 0.0
2018-Jun-19 21:28N 37°46' W 122°23'4 8.4
2018-Jun-19 21:00N 37°50' W 122°24'4 8.5
2018-Jun-19 20:31N 37°54' W 122°25'2 4.7
2018-Jun-19 20:00N 37°57' W 122°26'4 7.5
2018-Jun-19 19:31N 37°53' W 122°24'4 8.1
2018-Jun-19 19:01N 37°49' W 122°23'3 5.4
2018-Jun-19 18:31N 37°46' W 122°23'0 0.0
2018-Jun-18 18:54N 37°46' W 122°23'0 0.2
2018-Jun-18 18:26N 37°47' W 122°23'0 0.1
2018-Jun-18 18:00N 37°47' W 122°23'2 4.8
2018-Jun-18 17:30N 37°47' W 122°20'2 3.2
2018-Jun-18 17:01N 37°47' W 122°18'2 4.4
2018-Jun-18 16:30N 37°47' W 122°21'2 4.7
2018-Jun-18 16:00N 37°49' W 122°23'2 5.0
2018-Jun-18 15:30N 37°51' W 122°24'3 6.4
2018-Jun-18 15:00N 37°54' W 122°24'1 1.7
2018-Jun-18 14:30N 37°55' W 122°25'0 0.0
2018-Jun-18 14:00N 37°55' W 122°25'3 6.8
2018-Jun-18 13:30N 37°52' W 122°24'4 7.8
2018-Jun-18 13:00N 37°48' W 122°23'2 0.1
2018-Jun-18 01:33N 37°46' W 122°23'0 1.2
2018-Jun-18 01:30N 37°46' W 122°23'0 0.0
2018-Jun-17 16:52N 37°46' W 122°23'1 1.7
2018-Jun-17 16:30N 37°46' W 122°22'1 1.8
2018-Jun-17 16:00N 37°46' W 122°21'0 0.0
2018-Jun-17 15:30N 37°46' W 122°21'0 0.0
2018-Jun-17 15:00N 37°46' W 122°21'0 0.0
2018-Jun-17 14:30N 37°46' W 122°21'0 0.0
2018-Jun-17 14:00N 37°46' W 122°21'1 1.9
2018-Jun-17 13:29N 37°46' W 122°22'1 0.0
2018-Jun-16 17:40N 37°46' W 122°23'0 0.6
2018-Jun-16 17:30N 37°46' W 122°23'0 0.0
2018-Jun-16 17:00N 37°46' W 122°23'2 4.2
2018-Jun-16 16:30N 37°49' W 122°23'3 6.5
2018-Jun-16 16:00N 37°52' W 122°24'4 8.4
2018-Jun-16 15:30N 37°56' W 122°25'5 7.9
2018-Jun-16 14:55N 38°00' W 122°24'4 7.9
2018-Jun-16 14:26N 38°02' W 122°20'5 0.3
2018-Jun-15 21:04N 38°06' W 122°16'0 0.3
2018-Jun-15 20:53N 38°06' W 122°16'0 0.1
2018-Jun-15 20:25N 38°05' W 122°16'0 0.0
2018-Jun-14 23:50N 38°05' W 122°15'0 0.1
2018-Jun-14 23:24N 38°05' W 122°16'1 3.3
2018-Jun-14 22:59N 38°04' W 122°15'2 4.3
2018-Jun-14 22:30N 38°03' W 122°12'3 4.3
2018-Jun-14 21:50N 38°02' W 122°09'0 0.0
2018-Jun-14 20:06N 38°02' W 122°09'2 9.8
2018-Jun-14 19:52N 38°03' W 122°12'4 9.8
2018-Jun-14 19:30N 38°04' W 122°16'5 9.6
2018-Jun-14 18:59N 38°02' W 122°22'2 1.7
2018-Jun-14 17:39N 38°03' W 122°19'2 8.8
2018-Jun-14 17:23N 38°04' W 122°16'2 2.3
2018-Jun-14 16:38N 38°05' W 122°15'1 5.8
2018-Jun-14 16:27N 38°04' W 122°14'4 8.5
2018-Jun-14 15:57N 38°02' W 122°09'1 0.4
2018-Jun-14 13:31N 38°02' W 122°08'1 5.7
2018-Jun-14 13:20N 38°02' W 122°09'2 5.7
2018-Jun-14 13:00N 38°03' W 122°11'3 5.4
2018-Jun-14 12:30N 38°04' W 122°15'1 0.1
2018-Jun-14 02:24N 38°05' W 122°15'2 5.4
2018-Jun-14 02:00N 38°04' W 122°17'4 7.3
2018-Jun-14 01:30N 38°02' W 122°21'4 7.5
2018-Jun-14 00:59N 37°60' W 122°25'3 7.1
2018-Jun-14 00:30N 37°56' W 122°26'1 2.1
2018-Jun-14 00:00N 37°55' W 122°25'0 0.1
2018-Jun-13 23:30N 37°55' W 122°25'0 0.0
2018-Jun-13 23:00N 37°55' W 122°25'0 0.0
2018-Jun-13 22:30N 37°55' W 122°25'0 0.0
2018-Jun-13 22:00N 37°55' W 122°25'0 0.0
2018-Jun-13 21:30N 37°55' W 122°25'0 0.0
2018-Jun-13 21:00N 37°55' W 122°25'0 0.0
2018-Jun-13 20:30N 37°55' W 122°25'0 0.0
2018-Jun-13 20:01N 37°55' W 122°25'0 0.0
2018-Jun-13 19:29N 37°55' W 122°25'0 0.0
2018-Jun-13 19:00N 37°55' W 122°25'0 0.0
2018-Jun-13 18:30N 37°55' W 122°25'0 0.0
2018-Jun-13 17:56N 37°55' W 122°25'0 0.0
2018-Jun-13 17:30N 37°55' W 122°25'0 0.0
2018-Jun-13 17:00N 37°55' W 122°25'0 0.0
2018-Jun-13 16:30N 37°55' W 122°25'0 0.0
2018-Jun-13 16:00N 37°55' W 122°25'0 0.0
2018-Jun-13 15:30N 37°55' W 122°25'0 0.0
2018-Jun-13 15:00N 37°55' W 122°25'0 0.0
2018-Jun-13 14:29N 37°55' W 122°25'0 0.3
2018-Jun-13 14:00N 37°55' W 122°25'0 0.3
2018-Jun-13 13:30N 37°55' W 122°25'1 2.0
2018-Jun-13 13:01N 37°54' W 122°25'3 6.8
2018-Jun-13 12:31N 37°51' W 122°24'5 9.2
2018-Jun-13 12:00N 37°46' W 122°23'0 0.0
2018-Jun-13 03:49N 37°46' W 122°23'2 6.1
2018-Jun-13 03:30N 37°48' W 122°23'4 8.9
2018-Jun-13 03:00N 37°53' W 122°25'3 5.1
2018-Jun-13 02:30N 37°55' W 122°25'0 0.2
2018-Jun-13 02:00N 37°55' W 122°25'0 0.0
2018-Jun-13 01:30N 37°55' W 122°25'0 0.0
2018-Jun-13 01:00N 37°55' W 122°25'0 0.0
2018-Jun-13 00:30N 37°55' W 122°25'0 0.0
2018-Jun-13 00:00N 37°55' W 122°25'0 0.0
2018-Jun-12 23:30N 37°55' W 122°25'0 0.0
2018-Jun-12 23:00N 37°55' W 122°25'0 0.0
2018-Jun-12 22:29N 37°55' W 122°25'0 0.0
2018-Jun-12 22:00N 37°55' W 122°25'0 0.0
2018-Jun-12 21:29N 37°55' W 122°25'0 0.0
2018-Jun-12 21:00N 37°55' W 122°25'0 0.0
2018-Jun-12 20:30N 37°55' W 122°25'0 0.0
2018-Jun-12 20:00N 37°55' W 122°25'0 0.0
2018-Jun-12 19:25N 37°55' W 122°25'0 0.0
2018-Jun-12 18:59N 37°55' W 122°25'0 0.0
2018-Jun-12 18:30N 37°55' W 122°25'  

Dump ship's entire track history